Time;durP1;ratioP1;P1;durP2;ratioP2;P2;SDS_P1;SDS_P2;PMS_P1;PMS_P2;Temp;Humidity;BMP_temperature;BMP_pressure;BME280_temperature;BME280_humidity;BME280_pressure;Samples;Min_cycle;Max_cycle;Signal;HPM_P1;HPM_P2
2022/04/19 00:01:11;;;;;;;5.07;3.20;;;7.00;99.90;;;;;;5047818;28;20189;-30
2022/04/19 00:03:37;;;;;;;4.60;3.07;;;7.00;99.90;;;;;;5030154;28;20267;-29
2022/04/19 00:06:04;;;;;;;5.37;3.37;;;7.10;99.90;;;;;;5028358;28;20241;-29
2022/04/19 00:08:30;;;;;;;3.80;3.33;;;7.00;99.90;;;;;;5028062;28;20212;-30
2022/04/19 00:10:56;;;;;;;3.63;3.10;;;7.00;99.90;;;;;;5027623;28;20186;-29
2022/04/19 00:13:22;;;;;;;4.93;3.10;;;7.00;99.90;;;;;;5011540;28;20184;-30
2022/04/19 00:15:48;;;;;;;4.60;2.87;;;7.00;99.90;;;;;;5013194;28;20760;-29
2022/04/19 00:18:15;;;;;;;4.67;2.90;;;6.90;99.90;;;;;;4996833;28;20285;-29
2022/04/19 00:20:44;;;;;;;3.63;3.03;;;6.90;99.90;;;;;;4996692;28;20198;-29
2022/04/19 00:23:13;;;;;;;3.57;3.13;;;6.90;99.90;;;;;;5012566;28;20186;-30
2022/04/19 00:25:40;;;;;;;3.80;2.90;;;6.90;99.90;;;;;;5029314;28;20641;-29
2022/04/19 00:28:07;;;;;;;7.07;2.80;;;6.80;99.90;;;;;;5030901;28;20197;-28
2022/04/19 00:30:33;;;;;;;3.93;3.10;;;6.60;99.90;;;;;;5048936;28;20273;-29
2022/04/19 00:32:58;;;;;;;4.00;3.40;;;6.40;99.90;;;;;;5032706;28;20670;-28
2022/04/19 00:35:24;;;;;;;4.37;3.10;;;6.20;99.90;;;;;;5049227;28;20270;-30
2022/04/19 00:37:50;;;;;;;4.90;3.23;;;6.10;99.90;;;;;;5032361;28;20214;-30
2022/04/19 00:40:16;;;;;;;4.33;3.20;;;6.20;99.90;;;;;;5025092;28;20195;-29
2022/04/19 00:42:42;;;;;;;3.60;2.90;;;6.20;99.90;;;;;;5022317;28;20223;-29
2022/04/19 00:45:08;;;;;;;3.67;2.80;;;6.20;99.90;;;;;;4993116;28;20181;-29
2022/04/19 00:47:35;;;;;;;3.60;2.63;;;6.10;99.90;;;;;;5009168;28;20197;-29
2022/04/19 00:50:07;;;;;;;3.17;2.80;;;6.10;99.90;;;;;;5009222;28;20200;-29
2022/04/19 00:52:37;;;;;;;6.17;2.67;;;6.00;99.90;;;;;;4993337;28;20181;-30
2022/04/19 00:55:07;;;;;;;3.77;2.67;;;5.80;99.90;;;;;;4993002;28;20560;-29
2022/04/19 00:57:41;;;;;;;4.70;2.80;;;5.60;99.90;;;;;;5042377;22;20235;-34
2022/04/19 01:00:12;;;;;;;3.50;2.67;;;5.40;99.90;;;;;;5033230;28;20239;-35
2022/04/19 01:02:42;;;;;;;3.30;2.53;;;5.50;99.90;;;;;;5035898;28;20174;-34
2022/04/19 01:05:11;;;;;;;4.90;2.70;;;5.30;99.90;;;;;;5026203;28;20269;-35
2022/04/19 01:07:39;;;;;;;3.93;2.67;;;5.10;99.90;;;;;;5006287;28;20203;-36
2022/04/19 01:10:09;;;;;;;3.43;2.77;;;5.00;99.90;;;;;;4996030;28;20187;-36
2022/04/19 01:15:20;;;;;;;4.33;2.50;;;5.10;99.90;;;;;;5026754;28;20187;-35
2022/04/19 01:18:01;;;;;;;5.83;3.00;;;5.20;99.90;;;;;;5011432;28;20218;-35
2022/04/19 01:20:29;;;;;;;3.13;2.43;;;5.10;99.90;;;;;;4995403;28;20182;-36
2022/04/19 01:22:56;;;;;;;4.97;2.77;;;5.20;99.90;;;;;;5011564;28;20186;-35
2022/04/19 01:25:26;;;;;;;3.47;2.87;;;5.30;99.90;;;;;;4996185;28;20275;-35
2022/04/19 01:27:53;;;;;;;3.50;2.90;;;5.50;99.90;;;;;;4995377;28;20270;-36
2022/04/19 01:30:19;;;;;;;3.67;3.10;;;5.50;99.90;;;;;;5031194;28;20178;-35
2022/04/19 01:32:46;;;;;;;2.63;2.43;;;5.50;99.90;;;;;;5031336;28;20182;-35
2022/04/19 01:35:21;;;;;;;2.90;2.50;;;5.50;99.90;;;;;;5031687;28;20244;-35
2022/04/19 01:37:58;;;;;;;4.03;2.90;;;5.50;99.90;;;;;;5015899;28;20218;-35
2022/04/19 01:40:34;;;;;;;4.07;2.80;;;5.40;99.90;;;;;;5031118;28;20201;-36
2022/04/19 01:43:03;;;;;;;4.43;2.80;;;5.30;99.90;;;;;;5012397;28;20179;-34
2022/04/19 01:45:42;;;;;;;3.67;2.63;;;5.30;99.90;;;;;;4996481;28;20577;-35
2022/04/19 01:48:14;;;;;;;4.57;2.83;;;5.30;99.90;;;;;;4995776;28;20310;-35
2022/04/19 01:50:40;;;;;;;3.60;2.93;;;5.20;99.90;;;;;;4995005;28;20242;-35
2022/04/19 01:53:07;;;;;;;4.87;2.93;;;5.10;99.90;;;;;;4995194;28;20183;-35
2022/04/19 01:55:33;;;;;;;4.30;3.03;;;5.10;99.90;;;;;;4994445;28;20210;-36
2022/04/19 01:58:06;;;;;;;3.33;2.93;;;5.00;99.90;;;;;;5010953;28;20211;-35
2022/04/19 02:00:36;;;;;;;3.47;2.80;;;5.00;99.90;;;;;;5011081;28;20183;-34
2022/04/19 02:03:03;;;;;;;4.00;3.20;;;5.00;99.90;;;;;;5011175;28;20636;-36
2022/04/19 02:05:30;;;;;;;5.43;3.17;;;5.00;99.90;;;;;;5011274;28;20175;-35
2022/04/19 02:07:59;;;;;;;4.53;3.00;;;5.00;99.90;;;;;;5010574;28;20203;-36
2022/04/19 02:10:27;;;;;;;3.80;2.93;;;5.00;99.90;;;;;;5010331;28;20176;-35
2022/04/19 02:12:53;;;;;;;4.60;3.13;;;5.00;99.90;;;;;;4994793;28;20187;-35
2022/04/19 02:15:43;;;;;;;6.13;3.30;;;5.10;99.90;;;;;;4983586;28;20214;-35
2022/04/19 02:18:23;;;;;;;4.00;2.87;;;5.10;99.90;;;;;;4995845;28;20691;-35
2022/04/19 02:20:48;;;;;;;3.90;3.00;;;5.10;99.90;;;;;;4994518;28;20271;-35
2022/04/19 02:23:14;;;;;;;4.77;2.80;;;5.00;99.90;;;;;;4994079;28;20190;-36
2022/04/19 02:25:42;;;;;;;4.87;2.93;;;5.00;99.90;;;;;;5010889;28;20171;-36
2022/04/19 02:28:10;;;;;;;3.67;2.63;;;4.90;99.90;;;;;;5013199;28;20196;-35
2022/04/19 02:30:42;;;;;;;3.93;2.90;;;4.80;99.90;;;;;;5030427;28;20181;-35
2022/04/19 02:33:14;;;;;;;5.07;2.77;;;4.60;99.90;;;;;;5030275;28;20273;-35
2022/04/19 02:35:40;;;;;;;4.07;3.10;;;4.50;99.90;;;;;;5046834;28;20274;-35
2022/04/19 02:38:07;;;;;;;3.57;2.67;;;4.40;99.90;;;;;;5022573;28;20207;-36
2022/04/19 02:40:40;;;;;;;3.67;2.40;;;4.40;99.90;;;;;;4995361;28;20644;-35
2022/04/19 02:43:06;;;;;;;6.77;3.20;;;4.40;99.90;;;;;;4994242;28;20655;-35
2022/04/19 02:45:32;;;;;;;4.17;3.10;;;4.40;99.90;;;;;;4994158;28;20182;-38
2022/04/19 02:48:04;;;;;;;4.60;2.93;;;4.50;99.90;;;;;;5010593;28;20226;-35
2022/04/19 02:50:42;;;;;;;4.30;3.20;;;4.60;99.90;;;;;;4993751;28;20179;-36
2022/04/19 02:53:08;;;;;;;2.73;2.33;;;4.70;99.90;;;;;;4994146;28;20186;-35
2022/04/19 02:55:37;;;;;;;3.30;2.90;;;4.70;99.90;;;;;;4994370;28;20283;-35
2022/04/19 02:58:03;;;;;;;5.10;3.03;;;4.70;99.90;;;;;;5011558;28;20274;-36
2022/04/19 03:00:30;;;;;;;3.33;3.03;;;4.70;99.90;;;;;;5030161;28;20254;-37
2022/04/19 03:02:55;;;;;;;4.10;2.97;;;4.60;99.90;;;;;;5030167;28;20257;-35
2022/04/19 03:05:22;;;;;;;4.00;3.07;;;4.70;99.90;;;;;;5031449;28;20177;-36
2022/04/19 03:07:48;;;;;;;3.90;3.03;;;4.70;99.90;;;;;;5010544;28;20277;-36
2022/04/19 03:10:16;;;;;;;5.07;3.10;;;4.70;99.90;;;;;;4993739;28;20184;-36
2022/04/19 03:12:43;;;;;;;4.90;3.10;;;4.60;99.90;;;;;;4993808;28;20221;-35
2022/04/19 03:15:17;;;;;;;2.90;2.60;;;4.50;99.90;;;;;;5010335;28;20179;-37
2022/04/19 03:17:44;;;;;;;4.77;2.77;;;4.50;99.90;;;;;;4993627;28;20290;-35
2022/04/19 03:20:11;;;;;;;4.90;2.67;;;4.50;99.90;;;;;;5009680;28;20175;-35
2022/04/19 03:28:10;;;;;;;4.20;3.23;;;4.00;99.90;;;;;;5010524;28;20288;-38
2022/04/19 03:30:38;;;;;;;5.37;3.17;;;3.90;99.90;;;;;;5009895;28;20219;-35
2022/04/19 03:33:04;;;;;;;5.07;3.43;;;3.90;99.90;;;;;;5010026;28;20183;-38
2022/04/19 03:35:30;;;;;;;4.27;3.37;;;3.80;99.90;;;;;;5009455;28;20182;-35
2022/04/19 03:37:56;;;;;;;3.40;3.10;;;3.70;99.90;;;;;;4993510;28;20214;-36
2022/04/19 03:40:22;;;;;;;4.80;2.80;;;3.70;99.90;;;;;;5010528;28;20227;-36
2022/04/19 03:42:48;;;;;;;5.07;3.10;;;3.70;99.90;;;;;;4993521;28;20219;-36
2022/04/19 03:45:14;;;;;;;3.30;3.00;;;3.70;99.90;;;;;;5010232;28;20178;-37
2022/04/19 03:47:40;;;;;;;4.10;3.13;;;3.80;99.90;;;;;;5011307;28;20202;-37
2022/04/19 03:50:07;;;;;;;4.00;3.20;;;4.00;99.90;;;;;;4993039;28;20183;-35
2022/04/19 03:52:35;;;;;;;7.57;3.30;;;4.00;99.90;;;;;;4993575;28;20210;-35
2022/04/19 03:55:02;;;;;;;4.77;3.17;;;4.00;99.90;;;;;;4993658;28;20183;-39
2022/04/19 03:57:28;;;;;;;4.10;3.40;;;4.00;99.90;;;;;;4993498;28;20222;-35
2022/04/19 03:59:54;;;;;;;6.30;3.53;;;4.10;99.90;;;;;;5009973;28;20193;-35
2022/04/19 04:02:26;;;;;;;4.23;3.53;;;4.10;99.90;;;;;;5026130;28;20175;-35
2022/04/19 04:04:53;;;;;;;5.60;3.40;;;4.10;99.90;;;;;;5013301;28;20187;-35
2022/04/19 04:07:19;;;;;;;5.23;3.67;;;4.10;99.90;;;;;;4997319;28;20203;-35
2022/04/19 04:09:46;;;;;;;4.27;3.30;;;4.10;99.90;;;;;;4996998;28;20187;-35
2022/04/19 04:12:13;;;;;;;5.73;3.77;;;4.20;99.90;;;;;;4997404;28;20247;-37
2022/04/19 04:14:41;;;;;;;7.67;3.53;;;4.20;99.90;;;;;;4997334;28;20278;-36
2022/04/19 04:17:08;;;;;;;4.93;3.57;;;4.30;99.90;;;;;;4996663;28;20210;-36
2022/04/19 04:19:34;;;;;;;4.13;3.47;;;4.30;99.90;;;;;;4996339;28;20179;-36
2022/04/19 04:22:00;;;;;;;4.77;3.37;;;4.30;99.90;;;;;;4996935;28;20172;-35
2022/04/19 04:24:26;;;;;;;4.37;3.30;;;4.20;99.90;;;;;;4996989;28;20648;-35
2022/04/19 04:26:53;;;;;;;3.83;3.10;;;4.10;99.90;;;;;;5013077;28;20252;-36
2022/04/19 04:29:24;;;;;;;5.03;3.30;;;4.10;99.90;;;;;;5024960;28;20626;-35
2022/04/19 04:31:52;;;;;;;5.47;3.57;;;4.20;99.90;;;;;;5018216;28;20656;-36
2022/04/19 04:34:18;;;;;;;4.70;3.00;;;4.20;99.90;;;;;;4996510;28;20271;-35
2022/04/19 04:36:46;;;;;;;5.73;3.50;;;4.20;99.90;;;;;;5012991;28;20200;-36
2022/04/19 04:39:17;;;;;;;4.07;3.57;;;4.10;99.90;;;;;;5012658;28;20217;-35
2022/04/19 04:42:02;;;;;;;5.40;3.77;;;4.10;99.90;;;;;;5013969;28;20230;-36
2022/04/19 04:44:28;;;;;;;6.13;4.00;;;3.90;99.90;;;;;;5012525;28;20187;-35
2022/04/19 04:49:39;;;;;;;6.60;3.80;;;3.80;99.90;;;;;;5012231;28;20190;-36
2022/04/19 04:52:11;;;;;;;5.17;3.70;;;3.70;99.90;;;;;;4996560;28;20237;-35
2022/04/19 04:54:38;;;;;;;6.00;3.80;;;3.60;99.90;;;;;;5012488;28;20197;-36
2022/04/19 04:57:06;;;;;;;5.67;3.87;;;3.70;99.90;;;;;;5011810;28;20725;-35
2022/04/19 04:59:32;;;;;;;5.93;3.70;;;3.60;99.90;;;;;;5016440;28;20194;-35
2022/04/19 05:02:01;;;;;;;4.60;3.70;;;3.70;99.90;;;;;;5012824;28;20206;-35
2022/04/19 05:04:27;;;;;;;7.90;3.90;;;3.70;99.90;;;;;;4996321;28;20194;-37
2022/04/19 05:06:53;;;;;;;4.40;3.13;;;3.80;99.90;;;;;;4995793;28;20238;-35
2022/04/19 05:09:21;;;;;;;4.20;3.33;;;3.80;99.90;;;;;;4995794;28;20183;-35
2022/04/19 05:11:50;;;;;;;6.17;3.40;;;3.80;99.90;;;;;;4996317;28;20190;-35
2022/04/19 05:14:19;;;;;;;4.43;3.30;;;3.80;99.90;;;;;;5011309;28;20190;-37
2022/04/19 05:16:45;;;;;;;3.90;3.10;;;3.80;99.90;;;;;;5013520;28;20210;-36
2022/04/19 05:19:11;;;;;;;3.83;3.27;;;3.80;99.90;;;;;;4995780;28;20230;-39
2022/04/19 05:21:39;;;;;;;3.83;3.10;;;3.90;99.90;;;;;;4995352;28;20230;-35
2022/04/19 05:24:07;;;;;;;5.13;3.20;;;4.00;99.90;;;;;;4996007;28;20190;-35
2022/04/19 05:26:34;;;;;;;4.37;3.20;;;4.10;99.90;;;;;;4995698;28;20234;-36
2022/04/19 05:29:01;;;;;;;5.13;2.97;;;4.20;99.90;;;;;;5004609;28;20187;-35
2022/04/19 05:31:28;;;;;;;6.07;3.67;;;4.20;99.90;;;;;;5031326;28;20277;-37
2022/04/19 05:33:54;;;;;;;6.47;3.87;;;4.30;99.90;;;;;;5031818;28;20186;-35
2022/04/19 05:36:22;;;;;;;4.40;3.63;;;4.40;99.90;;;;;;5031215;28;20237;-35
2022/04/19 05:38:52;;;;;;;5.17;4.00;;;4.50;99.90;;;;;;5030886;28;20195;-36
2022/04/19 05:41:23;;;;;;;6.47;4.13;;;4.60;99.90;;;;;;5026766;28;20271;-36
2022/04/19 05:43:51;;;;;;;5.47;3.67;;;4.70;99.90;;;;;;4995754;28;20179;-36
2022/04/19 05:46:20;;;;;;;4.80;3.47;;;4.80;99.90;;;;;;5011765;28;20179;-37
2022/04/19 05:48:47;;;;;;;4.00;3.60;;;4.90;99.90;;;;;;5011269;28;20203;-37
2022/04/19 05:51:14;;;;;;;5.13;3.40;;;5.00;99.90;;;;;;5010844;28;20179;-36
2022/04/19 05:53:41;;;;;;;5.53;3.20;;;5.10;99.90;;;;;;4995414;28;20187;-36
2022/04/19 05:56:10;;;;;;;5.60;3.87;;;5.20;99.90;;;;;;4995136;28;20176;-36
2022/04/19 05:58:35;;;;;;;7.23;4.00;;;5.20;99.90;;;;;;5000931;28;20305;-35
2022/04/19 06:01:02;;;;;;;5.70;3.70;;;5.30;99.90;;;;;;5030627;28;20266;-36
2022/04/19 06:06:15;;;;;;;5.27;3.43;;;5.40;99.90;;;;;;5012286;28;20175;-37
2022/04/19 06:08:43;;;;;;;5.00;3.50;;;5.60;99.90;;;;;;5010497;28;20310;-38
2022/04/19 06:11:12;;;;;;;5.50;3.57;;;5.60;99.90;;;;;;5010978;28;20168;-36
2022/04/19 06:13:40;;;;;;;4.83;3.53;;;5.70;99.90;;;;;;5010948;28;20182;-40
2022/04/19 06:16:07;;;;;;;5.37;3.93;;;5.70;99.90;;;;;;5010770;28;20369;-37
2022/04/19 06:18:37;;;;;;;6.73;3.90;;;5.80;99.90;;;;;;5010569;28;20223;-37
2022/04/19 06:21:23;;;;;;;4.83;3.83;;;5.90;99.90;;;;;;5011101;28;20209;-38
2022/04/19 06:23:50;;;;;;;4.67;3.80;;;6.10;99.90;;;;;;4994520;28;20202;-37
2022/04/19 06:26:16;;;;;;;6.23;4.30;;;6.20;99.90;;;;;;5010370;28;20262;-37
2022/04/19 06:28:43;;;;;;;6.10;4.33;;;6.30;99.90;;;;;;4995014;28;20191;-39
2022/04/19 06:31:44;;;;;;;7.93;4.00;;;6.50;99.90;;;;;;5001566;28;20179;-37
2022/04/19 06:34:22;;;;;;;4.27;3.20;;;6.60;99.90;;;;;;4995156;28;20202;-37
2022/04/19 06:37:10;;;;;;;5.33;3.77;;;6.80;99.90;;;;;;5010671;28;20212;-40
2022/04/19 06:39:41;;;;;;;5.73;3.83;;;7.10;99.90;;;;;;5010821;28;20172;-36
2022/04/19 06:42:07;;;;;;;6.70;4.30;;;7.20;99.90;;;;;;5010683;28;20270;-37
2022/04/19 06:44:56;;;;;;;5.30;4.00;;;7.40;99.90;;;;;;5009791;28;20240;-35
2022/04/19 06:47:26;;;;;;;4.43;3.73;;;7.60;99.90;;;;;;4994364;28;20202;-38
2022/04/19 06:49:57;;;;;;;6.43;3.90;;;7.60;99.90;;;;;;5010423;28;20550;-36
2022/04/19 06:52:24;;;;;;;4.93;3.60;;;7.70;99.90;;;;;;5010559;28;20178;-36
2022/04/19 06:54:51;;;;;;;4.67;3.53;;;7.90;99.90;;;;;;5010534;28;20185;-37
2022/04/19 06:57:17;;;;;;;5.50;3.70;;;7.90;99.90;;;;;;5010756;28;20218;-37
2022/04/19 06:59:43;;;;;;;5.77;4.07;;;8.00;99.90;;;;;;5018296;28;20182;-39
2022/04/19 07:02:09;;;;;;;4.60;4.03;;;8.20;99.90;;;;;;5010493;28;20180;-38
2022/04/19 07:04:35;;;;;;;7.17;3.63;;;8.30;99.90;;;;;;5010624;28;20182;-41
2022/04/19 07:07:04;;;;;;;7.10;4.00;;;8.50;99.90;;;;;;4994238;28;20300;-40
2022/04/19 07:09:34;;;;;;;4.87;4.00;;;8.60;99.90;;;;;;4993791;28;20183;-37
2022/04/19 07:12:01;;;;;;;4.40;4.00;;;8.80;99.90;;;;;;4994004;28;20203;-37
2022/04/19 07:14:31;;;;;;;7.07;3.50;;;9.00;99.90;;;;;;4994193;28;20186;-37
2022/04/19 07:16:58;;;;;;;5.27;3.50;;;9.10;99.90;;;;;;5009433;28;20214;-36
2022/04/19 07:19:25;;;;;;;4.50;3.70;;;9.30;99.90;;;;;;5009887;28;20175;-37
2022/04/19 07:27:39;;;;;;;4.30;3.63;;;9.50;99.90;;;;;;5010018;28;20276;-37
2022/04/19 07:30:06;;;;;;;4.70;3.90;;;9.60;99.90;;;;;;5023865;28;20179;-40
2022/04/19 07:32:33;;;;;;;6.53;3.73;;;9.70;99.90;;;;;;5005651;28;20182;-38
2022/04/19 07:35:21;;;;;;;4.27;3.80;;;9.90;99.90;;;;;;5011676;28;20179;-38
2022/04/19 07:37:47;;;;;;;4.87;3.77;;;10.00;99.90;;;;;;5012446;28;20234;-40
2022/04/19 07:40:14;;;;;;;4.33;3.60;;;10.20;99.90;;;;;;5013287;28;20178;-37
2022/04/19 07:42:40;;;;;;;5.63;3.40;;;10.30;99.90;;;;;;5013399;28;20225;-39
2022/04/19 07:45:06;;;;;;;4.03;3.10;;;10.40;99.90;;;;;;5013223;28;20184;-40
2022/04/19 07:47:35;;;;;;;4.93;3.10;;;10.50;99.90;;;;;;5031468;28;20214;-39
2022/04/19 07:50:01;;;;;;;6.10;3.67;;;10.60;99.90;;;;;;5024114;28;20587;-43
2022/04/19 07:52:28;;;;;;;5.83;4.20;;;10.80;99.90;;;;;;5021682;28;20183;-39
2022/04/19 07:54:54;;;;;;;5.47;3.53;;;11.00;99.90;;;;;;5023198;28;20182;-37
2022/04/19 07:57:21;;;;;;;4.10;3.43;;;11.20;99.90;;;;;;4995719;28;20734;-37
2022/04/19 07:59:54;;;;;;;5.23;3.40;;;11.30;99.90;;;;;;5012969;28;20194;-39
2022/04/19 08:02:21;;;;;;;4.17;3.30;;;11.50;99.90;;;;;;4997072;28;20184;-37
2022/04/19 08:04:47;;;;;;;3.87;3.47;;;11.70;99.90;;;;;;4997114;28;20515;-37
2022/04/19 08:07:13;;;;;;;4.40;3.63;;;11.80;99.90;;;;;;4996750;28;20270;-38
2022/04/19 08:09:39;;;;;;;5.30;4.23;;;12.00;99.90;;;;;;4996160;28;20195;-36
2022/04/19 08:12:06;;;;;;;4.77;3.90;;;12.10;99.90;;;;;;5013030;28;20183;-37
2022/04/19 08:14:32;;;;;;;6.63;3.93;;;12.30;99.90;;;;;;4996434;28;20184;-37
2022/04/19 08:16:58;;;;;;;6.20;3.50;;;12.40;99.90;;;;;;4996315;28;20216;-37
2022/04/19 08:19:24;;;;;;;5.03;4.17;;;12.60;99.90;;;;;;4996250;28;20178;-38
2022/04/19 08:21:51;;;;;;;6.17;3.90;;;12.60;99.90;;;;;;4996840;28;20179;-38
2022/04/19 08:24:18;;;;;;;6.40;3.83;;;12.70;99.90;;;;;;4997753;28;20177;-37
2022/04/19 08:26:46;;;;;;;4.97;4.03;;;12.80;99.90;;;;;;5014683;28;20193;-38
2022/04/19 08:29:11;;;;;;;4.57;3.90;;;13.10;99.90;;;;;;5021794;28;20191;-37
2022/04/19 08:31:37;;;;;;;4.03;3.63;;;13.40;99.90;;;;;;5031455;28;20193;-37
2022/04/19 08:34:04;;;;;;;7.17;4.27;;;13.60;99.90;;;;;;5048976;28;20184;-40
2022/04/19 08:36:30;;;;;;;5.17;3.83;;;13.90;99.90;;;;;;5032549;28;20688;-38
2022/04/19 08:38:56;;;;;;;5.77;3.90;;;14.00;99.90;;;;;;5032404;28;20197;-37
2022/04/19 08:41:24;;;;;;;4.70;4.03;;;14.20;99.90;;;;;;5021931;28;20168;-37
2022/04/19 08:43:52;;;;;;;4.47;4.07;;;14.40;99.90;;;;;;4996241;28;20180;-36
2022/04/19 08:46:18;;;;;;;4.50;3.53;;;14.60;99.90;;;;;;4996035;28;20175;-37
2022/04/19 08:48:45;;;;;;;5.60;4.00;;;14.90;99.90;;;;;;4994595;28;20234;-36
2022/04/19 08:51:12;;;;;;;4.73;4.00;;;14.90;99.90;;;;;;4996178;28;20224;-40
2022/04/19 08:59:08;;;;;;;4.47;3.73;;;15.20;99.90;;;;;;5022144;28;20204;-39
2022/04/19 09:01:36;;;;;;;4.43;3.90;;;15.40;99.90;;;;;;5032399;28;20181;-37
2022/04/19 09:04:04;;;;;;;4.23;3.50;;;15.60;99.90;;;;;;5032097;28;20185;-37
2022/04/19 09:06:50;;;;;;;7.73;4.00;;;15.90;99.90;;;;;;5031970;28;20182;-37
2022/04/19 09:09:19;;;;;;;3.93;3.60;;;15.90;99.10;;;;;;5024240;28;20179;-37
2022/04/19 09:11:45;;;;;;;5.43;3.70;;;16.00;99.50;;;;;;4995556;28;20176;-39
2022/04/19 09:14:11;;;;;;;5.27;3.97;;;16.20;98.70;;;;;;4995639;28;20187;-38
2022/04/19 09:16:36;;;;;;;8.63;3.97;;;16.00;99.50;;;;;;4995552;28;20207;-37
2022/04/19 09:19:02;;;;;;;6.00;4.03;;;16.10;98.90;;;;;;5011354;28;20182;-37
2022/04/19 09:21:40;;;;;;;4.63;3.67;;;16.20;99.40;;;;;;4995253;28;20229;-37
2022/04/19 09:24:19;;;;;;;4.47;4.07;;;16.40;99.40;;;;;;4995183;28;20284;-38
2022/04/19 09:26:48;;;;;;;5.37;3.70;;;16.50;97.70;;;;;;5011901;28;20186;-37
2022/04/19 09:29:22;;;;;;;4.70;3.67;;;16.60;98.20;;;;;;5022696;28;20191;-37
2022/04/19 09:31:52;;;;;;;7.13;3.87;;;16.60;97.00;;;;;;5031256;28;20185;-37
2022/04/19 09:34:29;;;;;;;5.83;3.60;;;16.60;97.60;;;;;;5031241;28;20221;-38
2022/04/19 09:37:08;;;;;;;4.50;3.47;;;16.90;96.20;;;;;;5045497;28;20214;-37
2022/04/19 09:39:37;;;;;;;4.93;3.13;;;17.10;96.60;;;;;;5011443;28;20198;-37
2022/04/19 09:42:12;;;;;;;4.93;3.13;;;17.30;96.80;;;;;;5011106;28;20183;-37
2022/04/19 09:44:39;;;;;;;4.10;3.33;;;17.60;95.50;;;;;;4994780;28;20590;-38
2022/04/19 09:47:07;;;;;;;3.28;2.90;;;17.50;95.50;;;;;;5011433;28;20202;-37
2022/04/19 09:49:55;;;;;;;3.53;2.80;;;17.60;95.30;;;;;;4994797;28;20187;-38
2022/04/19 09:52:20;;;;;;;3.42;2.70;;;17.90;95.00;;;;;;5010803;28;20262;-37
2022/04/19 09:55:00;;;;;;;4.22;3.08;;;18.10;93.30;;;;;;4994539;28;20278;-37
2022/04/19 09:57:28;;;;;;;4.78;3.08;;;18.30;92.70;;;;;;4994714;28;20273;-38
2022/04/19 09:59:54;;;;;;;3.53;2.70;;;18.40;92.30;;;;;;5027117;28;20273;-42
2022/04/19 10:08:11;;;;;;;3.20;2.60;;;18.80;89.30;;;;;;5003837;28;20218;-38
2022/04/19 10:10:41;;;;;;;2.88;2.53;;;18.90;88.80;;;;;;5010977;28;20187;-38
2022/04/19 10:13:08;;;;;;;3.10;2.55;;;19.00;89.30;;;;;;4994383;28;20265;-38
2022/04/19 10:15:35;;;;;;;3.92;2.40;;;19.10;88.70;;;;;;4994216;28;20244;-38
2022/04/19 10:18:05;;;;;;;3.53;2.40;;;19.10;89.40;;;;;;5012272;28;20241;-39
2022/04/19 10:20:33;;;;;;;2.53;2.33;;;19.10;90.10;;;;;;4994510;28;20179;-38
2022/04/19 10:23:04;;;;;;;3.22;2.67;;;19.20;88.90;;;;;;5010768;28;20179;-38
2022/04/19 10:25:44;;;;;;;3.47;2.67;;;19.30;89.10;;;;;;4994391;28;20182;-38
2022/04/19 10:28:30;;;;;;;3.28;2.80;;;19.40;87.60;;;;;;4996123;28;20195;-38
2022/04/19 10:30:58;;;;;;;4.32;2.70;;;19.30;86.40;;;;;;5013297;28;20191;-38
2022/04/19 10:33:39;;;;;;;4.60;3.40;;;19.30;87.90;;;;;;5027621;28;20236;-38
2022/04/19 10:36:15;;;;;;;3.95;2.35;;;19.50;89.10;;;;;;5010497;28;20182;-39
2022/04/19 10:38:43;;;;;;;3.95;2.15;;;19.60;80.80;;;;;;4993637;28;20261;-38
2022/04/19 10:41:09;;;;;;;5.22;2.22;;;19.00;81.50;;;;;;4993995;28;20249;-38
2022/04/19 10:43:35;;;;;;;2.45;2.13;;;18.90;79.50;;;;;;5010531;28;20183;-39
2022/04/19 10:46:19;;;;;;;2.70;1.77;;;18.50;78.20;;;;;;5010538;28;20171;-39
2022/04/19 10:49:23;;;;;;;1.85;1.70;;;18.30;79.90;;;;;;5009749;28;20257;-37
2022/04/19 10:51:52;;;;;;;2.15;1.95;;;18.40;79.10;;;;;;4993464;28;20195;-39
2022/04/19 10:55:17;;;;;;;2.90;2.20;;;18.80;81.10;;;;;;4993755;28;20193;-38
2022/04/19 11:00:42;;;;;;;3.03;2.25;;;18.80;80.70;;;;;;4991612;28;20183;-38
2022/04/19 11:03:11;;;;;;;3.47;2.35;;;18.90;80.60;;;;;;5015509;28;20198;-38
2022/04/19 11:05:43;;;;;;;2.88;2.28;;;18.60;81.50;;;;;;5023405;28;20251;-38
2022/04/19 11:08:37;;;;;;;2.50;2.30;;;18.60;84.70;;;;;;5025921;28;20230;-38
2022/04/19 11:11:20;;;;;;;3.55;2.20;;;19.00;80.60;;;;;;5012985;28;20307;-38
2022/04/19 11:14:20;;;;;;;3.58;2.30;;;19.40;85.10;;;;;;5010250;28;20182;-40
2022/04/19 11:16:51;;;;;;;3.13;2.00;;;19.70;82.90;;;;;;5010481;28;20206;-38
2022/04/19 11:19:25;;;;;;;2.50;2.30;;;20.00;79.00;;;;;;5009821;28;20175;-38
2022/04/19 11:22:00;;;;;;;2.50;2.25;;;19.60;77.20;;;;;;5012098;28;20209;-39
2022/04/19 11:25:00;;;;;;;2.95;2.67;;;19.50;81.90;;;;;;5015239;28;20182;-40
2022/04/19 11:27:53;;;;;;;3.42;2.47;;;19.40;75.20;;;;;;5026199;28;20285;-39
2022/04/19 11:30:23;;;;;;;3.08;2.55;;;19.50;77.30;;;;;;4982400;28;20184;-42
2022/04/19 11:32:52;;;;;;;2.92;2.45;;;19.40;78.60;;;;;;5011134;28;20192;-40
2022/04/19 11:35:19;;;;;;;4.65;2.72;;;19.60;78.10;;;;;;5012352;28;20671;-38
2022/04/19 11:37:47;;;;;;;3.50;2.28;;;19.60;75.90;;;;;;5012766;28;20275;-39
2022/04/19 11:48:50;;;;;;;3.78;2.30;;;19.00;79.70;;;;;;5030659;28;20195;-39
2022/04/19 11:51:22;;;;;;;2.65;2.22;;;19.00;79.90;;;;;;5013837;28;20257;-38
2022/04/19 11:53:50;;;;;;;3.03;2.20;;;19.30;78.10;;;;;;5011312;28;20191;-40
2022/04/19 11:56:16;;;;;;;3.70;2.50;;;19.70;77.10;;;;;;5016408;28;20202;-38
2022/04/19 11:58:49;;;;;;;3.40;2.05;;;19.70;76.80;;;;;;5015700;28;20203;-41
2022/04/19 12:01:15;;;;;;;2.75;2.03;;;19.80;74.80;;;;;;5016675;28;20256;-37
2022/04/19 12:03:42;;;;;;;3.72;2.17;;;19.80;76.00;;;;;;5000013;28;20194;-38
2022/04/19 12:06:15;;;;;;;2.53;2.30;;;20.10;77.90;;;;;;5017913;28;20210;-38
2022/04/19 12:08:43;;;;;;;5.30;3.05;;;20.00;75.20;;;;;;5016599;28;20274;-39
2022/04/19 12:11:13;;;;;;;4.40;2.53;;;19.70;75.90;;;;;;5003534;28;20269;-39
2022/04/19 12:13:49;;;;;;;6.20;2.70;;;20.30;79.00;;;;;;5014072;28;20644;-38
2022/04/19 12:16:36;;;;;;;3.95;2.65;;;20.20;76.00;;;;;;5002084;28;20179;-39
2022/04/19 12:19:10;;;;;;;3.97;2.42;;;19.60;75.40;;;;;;4991688;28;20179;-38
2022/04/19 12:21:46;;;;;;;3.65;2.20;;;19.60;76.50;;;;;;4992258;28;20234;-39
2022/04/19 12:24:23;;;;;;;4.07;2.30;;;19.80;75.00;;;;;;5012027;28;20270;-38
2022/04/19 12:27:07;;;;;;;4.45;2.28;;;19.40;73.50;;;;;;4996053;28;20712;-40
2022/04/19 12:29:53;;;;;;;2.25;2.00;;;19.40;75.30;;;;;;5026654;28;20197;-39
2022/04/19 12:32:18;;;;;;;3.00;2.35;;;19.50;74.80;;;;;;5032557;28;20237;-39
2022/04/19 12:34:44;;;;;;;5.28;2.70;;;19.80;74.50;;;;;;5032496;28;20754;-38
2022/04/19 12:37:17;;;;;;;2.30;2.10;;;20.00;77.00;;;;;;5015602;28;20214;-39
2022/04/19 12:39:58;;;;;;;1.77;1.67;;;20.30;74.80;;;;;;5032465;28;20178;-39
2022/04/19 12:42:25;;;;;;;2.45;1.85;;;20.60;73.60;;;;;;5013425;28;20206;-40
2022/04/19 12:45:08;;;;;;;7.10;2.05;;;20.70;73.60;;;;;;4996414;28;20656;-39
2022/04/19 12:47:34;;;;;;;2.50;2.10;;;20.60;72.50;;;;;;4995924;28;20203;-38
2022/04/19 12:50:19;;;;;;;3.90;2.05;;;20.40;71.60;;;;;;5012038;28;20187;-39
2022/04/19 12:52:47;;;;;;;2.00;1.80;;;20.20;71.80;;;;;;4996567;28;20245;-40
2022/04/19 12:55:14;;;;;;;1.80;1.70;;;20.10;73.00;;;;;;5012056;28;20179;-39
2022/04/19 12:57:42;;;;;;;2.60;1.90;;;20.20;71.80;;;;;;4996164;28;20234;-39
2022/04/19 13:00:09;;;;;;;1.98;1.63;;;20.30;73.40;;;;;;5013932;28;20590;-40
2022/04/19 13:02:41;;;;;;;3.80;1.70;;;20.70;73.50;;;;;;5013319;28;20482;-36
2022/04/19 13:05:07;;;;;;;3.08;1.77;;;20.90;74.40;;;;;;5012423;28;20182;-36
2022/04/19 13:13:05;;;;;;;3.58;2.40;;;20.40;71.60;;;;;;5018440;28;20195;-36
2022/04/19 13:15:32;;;;;;;3.25;2.10;;;20.40;73.00;;;;;;4995890;28;20778;-36
2022/04/19 13:17:58;;;;;;;2.33;2.10;;;20.10;70.90;;;;;;4995316;28;20269;-36
2022/04/19 13:20:24;;;;;;;3.42;2.05;;;20.30;70.50;;;;;;5011384;28;20180;-35
2022/04/19 13:22:50;;;;;;;3.45;2.10;;;20.30;69.70;;;;;;4995389;28;20175;-37
2022/04/19 13:25:16;;;;;;;2.63;2.10;;;20.60;73.20;;;;;;4995339;28;20661;-39
2022/04/19 13:27:42;;;;;;;2.55;1.98;;;21.10;71.80;;;;;;5011542;28;20203;-37
2022/04/19 13:30:13;;;;;;;3.40;2.20;;;21.60;71.10;;;;;;5030429;28;20247;-37
2022/04/19 13:32:40;;;;;;;4.45;2.22;;;22.10;68.30;;;;;;5031665;28;20183;-36
2022/04/19 13:35:07;;;;;;;3.10;2.15;;;21.60;67.20;;;;;;5030618;28;20223;-41
2022/04/19 13:40:18;;;;;;;4.70;2.35;;;20.70;70.30;;;;;;5031132;28;20632;-39
2022/04/19 13:42:44;;;;;;;2.58;2.13;;;20.70;72.00;;;;;;5024475;28;20184;-39
2022/04/19 13:45:10;;;;;;;2.60;2.05;;;21.10;72.00;;;;;;4994803;28;20179;-39
2022/04/19 13:47:36;;;;;;;3.42;2.15;;;21.00;70.20;;;;;;5011355;28;20549;-38
2022/04/19 13:50:03;;;;;;;2.55;2.00;;;21.20;71.70;;;;;;4994408;28;20171;-36
2022/04/19 13:52:29;;;;;;;3.17;2.28;;;21.40;69.70;;;;;;5010865;28;20187;-36
2022/04/19 13:54:56;;;;;;;2.78;2.25;;;21.30;73.80;;;;;;5012494;28;20179;-37
2022/04/19 13:57:21;;;;;;;3.08;1.95;;;21.00;71.80;;;;;;4994731;28;20218;-37